Time;durP1;ratioP1;P1;durP2;ratioP2;P2;SDS_P1;SDS_P2;PMS_P1;PMS_P2;Temp;Humidity;BMP_temperature;BMP_pressure;BME280_temperature;BME280_humidity;BME280_pressure;Samples;Min_cycle;Max_cycle;Signal;HPM_P1;HPM_P2
2023/07/26 00:01:34;;;;;;;30.90;22.10;;;;;;;17.27;79.41;97390.95;434962;1257;111643;-42
2023/07/26 00:11:41;;;;;;;18.90;17.00;;;;;;;17.40;79.67;97404.48;434621;1257;583527;-41
2023/07/26 00:21:49;;;;;;;19.90;16.10;;;;;;;17.40;79.75;97417.30;434992;1257;99233;-41
2023/07/26 00:31:56;;;;;;;21.70;16.60;;;;;;;17.40;80.11;97425.20;434939;1257;107867;-40
2023/07/26 00:42:04;;;;;;;19.50;14.50;;;;;;;17.48;80.26;97429.71;435171;1256;99250;-41
2023/07/26 00:52:09;;;;;;;18.30;15.80;;;;;;;17.51;80.30;97424.90;435202;1256;110889;-42
2023/07/26 01:02:16;;;;;;;16.40;14.60;;;;;;;17.50;80.50;97403.79;434946;1257;106870;-41
2023/07/26 01:12:27;;;;;;;15.10;13.50;;;;;;;17.59;80.43;97395.38;435033;1264;99214;-41
2023/07/26 01:22:35;;;;;;;18.60;14.00;;;;;;;17.58;80.55;97391.59;434876;1266;108640;-41
2023/07/26 01:32:44;;;;;;;14.40;12.90;;;;;;;17.51;80.21;97388.17;436058;1251;97989;-42
2023/07/26 01:42:52;;;;;;;15.60;14.10;;;;;;;17.33;80.38;97399.21;435240;1253;111176;-41
2023/07/26 02:03:07;;;;;;;14.40;13.00;;;;;;;17.28;81.04;97377.98;435272;1256;98363;-42
2023/07/26 02:13:14;;;;;;;16.40;13.80;;;;;;;17.33;81.27;97382.67;435149;1257;108040;-42
2023/07/26 02:23:21;;;;;;;21.70;13.60;;;;;;;17.26;81.09;97396.63;435220;1257;99747;-42
2023/07/26 02:33:29;;;;;;;15.30;12.30;;;;;;;17.35;81.42;97390.55;435261;1254;110870;-42
2023/07/26 02:43:36;;;;;;;15.40;12.20;;;;;;;17.42;81.60;97390.53;435020;1257;108453;-41
2023/07/26 02:53:47;;;;;;;13.50;12.10;;;;;;;17.44;81.33;97392.52;435300;1257;98811;-42
2023/07/26 03:03:54;;;;;;;13.10;11.90;;;;;;;17.34;81.20;97390.61;435215;1256;108694;-43
2023/07/26 03:14:01;;;;;;;15.50;12.50;;;;;;;17.28;81.45;97410.05;435013;1256;98832;-43
2023/07/26 03:24:09;;;;;;;16.40;9.20;;;;;;;17.07;81.35;97440.38;435166;1256;112476;-42
2023/07/26 03:34:14;;;;;;;10.70;8.10;;;;;;;16.58;81.42;97469.44;435283;1252;108287;-43
2023/07/26 03:44:23;;;;;;;19.10;7.80;;;;;;;16.13;81.72;97456.17;435246;1256;99227;-42
2023/07/26 03:54:30;;;;;;;8.40;6.70;;;;;;;15.71;81.76;97472.48;435254;1254;108419;-44
2023/07/26 04:04:37;;;;;;;10.80;6.30;;;;;;;15.34;81.81;97471.10;435243;1254;99308;-43
2023/07/26 04:14:45;;;;;;;10.60;7.60;;;;;;;15.23;82.01;97471.76;435151;1254;111587;-43
2023/07/26 04:24:52;;;;;;;9.30;6.50;;;;;;;15.18;82.01;97476.45;435074;1254;106990;-44
2023/07/26 04:34:59;;;;;;;10.20;6.60;;;;;;;15.27;82.21;97492.29;435059;1257;99231;-43
2023/07/26 04:45:08;;;;;;;8.80;7.70;;;;;;;15.27;81.92;97519.83;435098;1256;108918;-44
2023/07/26 04:55:15;;;;;;;10.00;7.50;;;;;;;15.22;81.99;97534.55;435122;1256;99221;-45
2023/07/26 05:05:22;;;;;;;10.30;7.80;;;;;;;14.90;82.47;97502.98;435130;1257;110574;-43
2023/07/26 05:15:29;;;;;;;7.80;7.10;;;;;;;14.83;82.80;97528.30;434963;1257;107893;-43
2023/07/26 05:25:39;;;;;;;10.10;6.40;;;;;;;14.84;83.01;97554.16;435235;1256;98811;-45
2023/07/26 05:35:46;;;;;;;9.80;6.10;;;;;;;14.74;83.07;97532.83;435009;1256;108586;-44
2023/07/26 05:45:52;;;;;;;6.40;5.10;;;;;;;14.73;83.21;97544.70;435196;1256;99109;-44
2023/07/26 05:56:01;;;;;;;13.30;5.40;;;;;;;14.68;83.36;97546.67;435023;1257;111550;-43
2023/07/26 06:06:08;;;;;;;6.90;4.90;;;;;;;14.75;83.62;97564.53;435045;1256;108013;-44
2023/07/26 06:16:16;;;;;;;6.90;4.70;;;;;;;14.77;83.60;97584.38;435151;1260;99346;-43
2023/07/26 06:26:22;;;;;;;6.80;5.50;;;;;;;14.79;83.69;97597.64;435046;1256;107535;-43
2023/07/26 06:36:28;;;;;;;6.90;5.90;;;;;;;14.88;83.82;97595.89;435137;1256;98301;-42
2023/07/26 06:46:38;;;;;;;8.40;6.70;;;;;;;14.94;83.77;97600.75;434909;1257;111849;-44
2023/07/26 06:56:45;;;;;;;9.60;7.30;;;;;;;14.95;83.82;97623.68;435038;1256;107996;-44
2023/07/26 07:16:58;;;;;;;14.20;7.00;;;;;;;15.08;84.08;97644.98;435239;1254;108241;-43
2023/07/26 07:27:06;;;;;;;7.60;5.40;;;;;;;15.12;84.36;97650.27;435049;1256;98716;-43
2023/07/26 07:37:13;;;;;;;5.40;4.70;;;;;;;14.96;84.51;97655.13;435092;1256;112825;-44
2023/07/26 07:47:19;;;;;;;6.20;4.10;;;;;;;14.74;84.57;97660.66;434950;1254;107682;-42
2023/07/26 07:57:28;;;;;;;10.10;3.10;;;;;;;14.47;84.51;97669.10;435022;1256;99849;-42
2023/07/26 08:07:35;;;;;;;5.30;2.30;;;;;;;14.16;84.37;97685.21;435067;1257;106885;-42
2023/07/26 08:17:42;;;;;;;3.60;2.60;;;;;;;13.98;84.41;97692.11;435069;1257;99221;-43
2023/07/26 08:27:49;;;;;;;4.50;2.80;;;;;;;13.97;84.39;97703.23;435167;1256;111648;-41
2023/07/26 08:37:57;;;;;;;6.60;3.10;;;;;;;13.94;84.52;97720.83;435016;1257;107495;-43
2023/07/26 08:48:03;;;;;;;4.30;3.10;;;;;;;13.94;84.71;97740.23;435071;1256;98443;-42
2023/07/26 08:58:11;;;;;;;3.40;2.00;;;;;;;13.82;84.90;97751.51;435097;1254;107052;-42
2023/07/26 09:08:18;;;;;;;4.50;2.00;;;;;;;13.60;85.20;97765.39;434992;1256;99191;-44
2023/07/26 09:28:32;;;;;;;3.70;1.90;;;;;;;13.29;85.49;97791.46;435065;1256;107953;-43
2023/07/26 09:38:45;;;;;;;4.80;1.70;;;;;;;13.15;85.62;97785.99;435123;1256;99304;-43
2023/07/26 09:59:13;;;;;;;10.10;2.70;;;;;;;13.11;86.03;97790.13;435089;1257;99218;-42
2023/07/26 10:29:37;;;;;;;5.10;2.00;;;;;;;13.70;86.05;97811.85;434977;1267;99211;-45
2023/07/26 10:39:45;;;;;;;2.50;1.50;;;;;;;13.83;86.05;97812.98;434938;1257;108571;-43
2023/07/26 10:49:57;;;;;;;5.80;2.80;;;;;;;13.88;86.14;97817.33;435011;1257;98617;-44
2023/07/26 11:00:09;;;;;;;4.20;3.10;;;;;;;14.09;86.21;97821.18;435226;1256;110886;-42
2023/07/26 11:10:17;;;;;;;2.80;1.70;;;;;;;14.24;86.10;97824.98;435094;1257;107597;-42
2023/07/26 11:20:25;;;;;;;6.00;2.70;;;;;;;14.29;86.11;97840.47;435084;1257;99228;-42
2023/07/26 11:30:31;;;;;;;4.50;3.70;;;;;;;14.40;85.94;97858.93;435053;1266;107498;-43
2023/07/26 11:40:42;;;;;;;4.30;3.00;;;;;;;14.43;86.03;97862.51;435098;1267;99304;-42
2023/07/26 11:50:48;;;;;;;4.00;2.20;;;;;;;14.28;85.86;97876.84;435165;1256;111432;-42
2023/07/26 12:00:58;;;;;;;3.50;1.70;;;;;;;14.06;85.86;97883.83;435053;1254;107544;-42
2023/07/26 12:11:06;;;;;;;4.70;2.50;;;;;;;13.95;85.96;97889.80;434751;1257;387708;-42
2023/07/26 12:21:14;;;;;;;4.00;1.70;;;;;;;14.08;86.00;97895.42;435158;1257;108241;-42
2023/07/26 12:31:22;;;;;;;12.10;3.10;;;;;;;14.11;85.90;97906.94;435041;1257;99272;-41
2023/07/26 12:41:30;;;;;;;12.40;3.20;;;;;;;14.04;85.89;97916.70;435199;1256;111614;-41
2023/07/26 13:01:43;;;;;;;3.80;2.90;;;;;;;14.49;86.19;97936.64;435075;1257;98551;-43
2023/07/26 13:11:50;;;;;;;5.50;2.10;;;;;;;14.68;85.92;97942.91;435200;1256;108907;-42
2023/07/26 13:21:57;;;;;;;5.00;2.30;;;;;;;14.51;85.90;97939.84;435087;1257;97986;-42
2023/07/26 13:32:04;;;;;;;10.90;5.40;;;;;;;14.55;86.00;97956.52;435179;1257;111791;-43
2023/07/26 13:42:10;;;;;;;13.70;6.30;;;;;;;14.64;86.02;97967.55;435140;1266;108998;-42
2023/07/26 13:52:17;;;;;;;5.90;3.40;;;;;;;14.73;86.14;97967.96;435109;1257;99263;-43
2023/07/26 14:02:24;;;;;;;5.90;2.90;;;;;;;14.81;85.96;97970.69;435062;1257;109301;-41
2023/07/26 14:12:32;;;;;;;6.10;3.40;;;;;;;14.80;85.89;97968.03;435411;1257;99106;-41
2023/07/26 14:22:39;;;;;;;7.20;4.50;;;;;;;14.74;85.70;97979.66;435545;1255;110939;-42
2023/07/26 14:32:47;;;;;;;9.90;4.10;;;;;;;14.49;85.42;97992.60;435136;1256;108509;-41
2023/07/26 14:42:54;;;;;;;4.90;2.80;;;;;;;14.35;85.50;97998.20;435150;1257;98023;-42
2023/07/26 14:53:01;;;;;;;6.80;2.80;;;;;;;14.40;85.64;97995.11;435013;1257;108254;-43
2023/07/26 15:03:07;;;;;;;5.20;2.90;;;;;;;14.42;85.27;97996.81;435024;1257;99299;-43
2023/07/26 15:13:14;;;;;;;6.50;3.40;;;;;;;14.42;85.25;97995.38;435130;1254;112204;-43
2023/07/26 15:23:23;;;;;;;4.20;1.80;;;;;;;14.42;84.79;97984.99;435316;1254;108582;-41
2023/07/26 15:33:29;;;;;;;3.80;2.10;;;;;;;14.42;84.62;97988.02;435157;1257;99339;-41
2023/07/26 15:43:34;;;;;;;3.60;2.50;;;;;;;14.43;84.67;97977.45;435217;1253;108163;-42
2023/07/26 16:13:57;;;;;;;6.10;3.00;;;;;;;14.26;84.26;97981.42;435096;1256;108694;-41
2023/07/26 16:24:06;;;;;;;8.20;2.60;;;;;;;14.25;84.49;97990.41;435054;1256;99218;-42
2023/07/26 17:04:29;;;;;;;4.50;2.70;;;;;;;14.43;84.56;98004.92;434903;1257;108323;-42
2023/07/26 17:24:39;;;;;;;5.50;2.80;;;;;;;14.56;84.65;98003.30;434996;1256;108400;-42
2023/07/26 17:34:43;;;;;;;9.90;4.30;;;;;;;14.50;84.49;97999.43;435285;1253;99205;-42
2023/07/26 18:05:04;;;;;;;11.10;7.30;;;;;;;14.48;84.47;98007.63;435096;1256;99218;-43
2023/07/26 18:35:24;;;;;;;12.00;7.50;;;;;;;14.29;85.16;98032.95;435121;1256;111300;-43
2023/07/26 18:45:30;;;;;;;11.60;8.50;;;;;;;14.32;85.12;98041.61;435135;1256;107800;-43
2023/07/26 18:55:41;;;;;;;14.50;9.50;;;;;;;14.30;85.35;98046.83;435004;1253;99228;-42
2023/07/26 19:05:47;;;;;;;10.80;8.30;;;;;;;14.43;85.71;98049.34;435163;1256;107718;-43
2023/07/26 19:36:05;;;;;;;11.70;8.50;;;;;;;14.00;85.57;98063.01;435076;1252;108177;-42
2023/07/26 19:56:22;;;;;;;10.60;7.40;;;;;;;14.16;86.06;98065.96;435056;1253;109132;-41
2023/07/26 20:06:31;;;;;;;9.10;6.80;;;;;;;14.28;86.25;98062.52;435118;1256;99308;-42
2023/07/26 20:16:38;;;;;;;10.80;6.60;;;;;;;14.41;86.13;98062.49;435114;1254;113031;-41
2023/07/26 20:26:49;;;;;;;13.50;7.20;;;;;;;14.47;86.13;98063.22;435026;1253;108758;-41
2023/07/26 20:36:55;;;;;;;6.60;5.40;;;;;;;14.43;85.85;98080.40;434893;1257;101468;-41
2023/07/26 20:47:03;;;;;;;10.40;6.20;;;;;;;14.10;85.72;98087.89;435040;1256;108235;-42
2023/07/26 20:57:10;;;;;;;6.60;2.70;;;;;;;13.88;85.92;98102.79;435104;1256;99294;-41
2023/07/26 21:07:17;;;;;;;8.00;2.80;;;;;;;13.72;85.85;98073.18;435040;1256;110913;-41
2023/07/26 21:17:24;;;;;;;4.50;2.90;;;;;;;13.60;85.64;98056.83;435087;1254;108428;-41
2023/07/26 21:27:31;;;;;;;4.20;2.20;;;;;;;13.74;85.86;98070.84;435091;1256;99351;-42
2023/07/26 21:37:38;;;;;;;4.40;4.00;;;;;;;13.85;85.57;98080.41;434353;1257;108103;-42
2023/07/26 21:47:46;;;;;;;17.50;6.50;;;;;;;13.90;85.66;98093.65;434413;1257;99317;-42
2023/07/26 21:57:53;;;;;;;9.50;6.20;;;;;;;13.96;85.78;98082.71;434301;1257;111826;-41
2023/07/26 22:08:00;;;;;;;8.70;7.90;;;;;;;14.14;85.94;98087.45;434463;1260;108264;-42
2023/07/26 22:18:08;;;;;;;9.20;8.30;;;;;;;14.06;85.56;98087.98;434211;1253;99263;-42
2023/07/26 22:28:15;;;;;;;11.90;8.00;;;;;;;13.93;85.76;98096.69;434155;1257;107711;-42
2023/07/26 22:48:29;;;;;;;11.40;8.70;;;;;;;13.72;85.77;98110.90;435307;1256;111585;-43
2023/07/26 22:58:36;;;;;;;13.60;7.90;;;;;;;13.48;85.43;98109.18;435067;1254;107470;-41
2023/07/26 23:08:43;;;;;;;10.80;5.80;;;;;;;13.22;85.33;98112.21;435081;1256;99241;-42
2023/07/26 23:18:50;;;;;;;7.30;5.00;;;;;;;12.96;85.32;98129.41;435143;1256;108324;-42
2023/07/26 23:28:57;;;;;;;10.10;4.00;;;;;;;12.77;85.48;98130.52;435007;1257;99213;-41
2023/07/26 23:39:04;;;;;;;5.00;3.60;;;;;;;12.70;85.51;98135.92;435249;1256;111290;-42
2023/07/26 23:49:11;;;;;;;6.00;4.50;;;;;;;12.47;85.27;98140.13;435093;1256;108152;-41
2023/07/26 23:59:18;;;;;;;8.70;3.60;;;;;;;12.26;85.33;98140.06;435079;1256;99224;-40
